Tiempo atmosférico en la estación meteorológica de Alcañiz, Teruel (320 m.)



Fecha
DESCASC
Temp. máxima en grados centígrados (hora)
DESCASC
Temp. mínima en grados centígrados (hora)
DESCASC
Temp. media en grados centígrados
DESCASC
Racha de viento máxima en m/sg (hora)
DESCASC
Velocidad máxima media en intervalos de 10 minutos(hora)
DESCASC
Precipitaciones diarias en mm
DESCASC
Precipitaciones de 00:00 a 06:00 en mm
DESCASC
Precipitaciones de 06:00 a 12:00 en mm
DESCASC
Precipitaciones de 12:00 a 18:00 en mm
DESCASC
Precipitaciones de 18:00 a 24:00 en mm
DESCASC
22-01-2020 5.4 (15:50) 2.2 (01:00) 3.8 3.61 (17:10) 1.94 (17:20) 3.5 0.2 0 0.1 3.2
21-01-2020 8.9 (17:20) -0.1 (01:50) 4.4 10.83 (17:00) 5.83 (17:10) 122.2 20.7 28.6 33 39.9
20-01-2020 2.9 (23:00) -0.6 (09:00) 1.2 8.61 (03:20) 4.17 (03:20) 13.7 0 3.3 3.2 7.2
19-01-2020 7 (01:10) 0.7 (00:00) 3.8 10.83 (04:20) 5 (01:10) 13.7 0.5 13.2 0 0
18-01-2020 11.5 (15:40) 1.5 (00:00) 6.5 10 (23:59) 3.89 (14:50) 0 0 0 0 0
17-01-2020 15.2 (14:30) 0.9 (00:00) 8 13.06 (14:30) 7.5 (13:40) 0 0 0 0 0
16-01-2020 12.9 (15:40) -1.6 (-00:0) 5.6 5.28 (14:00) 3.61 (14:00) 0 0 0 0 0
15-01-2020 13.2 (16:30) -3.9 (-00:0) 4.6 3.61 (22:20) 2.22 (13:10) 0 0 0 0 0
14-01-2020 6.4 (16:10) -5.6 (-00:0) 0.4 4.17 (13:40) 3.06 (13:40) 0 0 0 0 0
13-01-2020 3.3 (17:00) -5.6 (-00:0) -1.1 4.17 (13:00) 2.5 (10:40) 0 0 0 0 0
12-01-2020 11.1 (14:10) -2.7 (08:00) 4.2 4.17 (15:20) 2.78 (15:10) 0 0 0 0 0
11-01-2020 11.2 (16:20) -0.7 (-00:0) 5.2 6.39 (14:00) 3.61 (12:10) 0 0 0 0 0
10-01-2020 10.2 (13:20) 1.2 (00:00) 5.7 14.44 (14:40) 6.11 (12:20) 0.5 0.5 0 0 0
09-01-2020 3.2 (13:50) -1.2 (-00:0) 1 4.17 (18:00) 2.78 (21:10) 0 0 0 0 0
08-01-2020 3.6 (15:30) -0.6 (-00:0) 1.5 3.06 (12:20) 2.22 (16:00) 0 0 0 0 0
07-01-2020 6.6 (15:20) -2 (-00:0) 2.3 3.89 (08:30) 2.22 (15:50) 0 0 0 0 0
06-01-2020 2 (16:10) -2.1 (-00:0) 0 3.61 (15:10) 2.22 (22:30) 0 0 0 0 0
05-01-2020 11.9 (13:50) 0.4 (00:00) 6.1 3.61 (11:20) 2.5 (15:40) 0 0 0 0 0
04-01-2020 10.9 (14:50) -0.9 (-00:0) 5 5.83 (14:10) 3.33 (13:40) 0 0 0 0 0
03-01-2020 5.1 (15:30) -1.5 (-00:0) 1.8 3.89 (07:40) 2.22 (08:20) 0 0 0 0 0
02-01-2020 0.7 (16:00) -1.3 (-00:0) -0.3 2.5 (05:20) 1.39 (04:10) 0 0 0 0 0
01-01-2020 1.5 (00:00) -0.8 (-00:0) 0.3 3.61 (06:10) 2.22 (10:10) 0 0 0 0 0
31-12-2019 1.9 (00:00) 0.3 (00:00) 1.1 3.61 (08:10) 1.94 (04:00) 0 0 0 0 0
30-12-2019 1.9 (21:10) -0.6 (-00:0) 0.6 3.61 (18:30) 1.94 (07:50) 0 0 0 0 0
29-12-2019 2.2 (14:50) -0.6 (-00:0) 0.8 3.33 (08:30) 1.67 (04:00) 0 0 0 0 0
28-12-2019 7.5 (16:10) -4 (-00:0) 1.8 6.11 (12:10) 3.89 (12:10) 0 0 0 0 0
27-12-2019 12.2 (13:50) -1 (-00:0) 5.6 4.17 (15:20) 2.78 (14:20) 0 0 0 0 0
26-12-2019 16.5 (13:50) 3.2 (00:00) 9.9 12.78 (14:10) 7.22 (14:00) 0 0 0 0 0
25-12-2019 15.8 (15:40) 4.4 (00:00) 10.1 3.61 (13:10) 2.78 (13:10) 0 0 0 0 0

Gráficas

Temp. máximas Temp. mínimas Temp. medias Precipitaciones Rachas de viento máximas Velocidades máximas media en intervalos de 10 minutos

Datos horarios

Fecha y hora oficial Temperatura (ºC) Velocidad del viento (km/h) Dirección del viento Racha (km/h) Dirección de racha Precipitación (mm) Presión (hPa) Tendencia (hPa) Humedad (%)
2020-01-23 23:00:00 5 0 Calma 9 Sudoeste 0 -- -- 90
2020-01-23 22:00:00 5.3 0 Calma 5 Oeste 0 -- -- 90
2020-01-23 21:00:00 5.7 3 Oeste 9 Este 0 -- -- 90
2020-01-23 20:00:00 7 4 Este 13 Nordeste 0 -- -- 88
2020-01-23 19:00:00 7.7 6 Nordeste 13 Nordeste 0 -- -- 86
2020-01-23 18:00:00 8 3 Nordeste 14 Nordeste 0 -- -- 83
2020-01-23 17:00:00 8.7 9 Nordeste 16 Nordeste 0 -- -- 76
2020-01-23 16:00:00 9.3 8 Nordeste 17 Este 0 -- -- 74
2020-01-23 15:00:00 9.3 9 Nordeste 16 Nordeste 0 -- -- 72
2020-01-23 14:00:00 9.7 4 Este 13 Nordeste 0 -- -- 66
2020-01-23 13:00:00 9.3 2 Sudeste 9 Sur 0 -- -- 66
2020-01-23 12:00:00 8.1 3 Sur 7 Sudeste 0 -- -- 74
2020-01-23 11:00:00 -- -- -- -- -- -- -- -- --
2020-01-23 10:00:00 3.7 0 Calma 7 Sur 0 -- -- 97
2020-01-23 09:00:00 2.6 0 Calma 7 Oeste 0 -- -- 97
2020-01-23 08:00:00 2.7 0 Calma 9 Sudoeste 0 -- -- 97
2020-01-23 07:00:00 3.2 3 Sur 12 Sudoeste 0 -- -- 97
2020-01-23 06:00:00 3.1 4 Sudeste 10 Sur 0 -- -- 97
2020-01-23 05:00:00 3.1 4 Sur 8 Sur 0 -- -- 96
2020-01-23 04:00:00 3.4 0 Calma 7 Sudoeste 0 -- -- 96
2020-01-23 03:00:00 3.5 0 Calma 4 Sur 0.2 -- -- 96
2020-01-23 02:00:00 3.5 0 Calma 5 Sudoeste 0.2 -- -- 96
2020-01-23 01:00:00 3.6 2 Sudoeste 6 Sudoeste 1.6 -- -- 96
2020-01-23 00:00:00 3.5 0 Calma 10 Sudoeste 1.6 -- -- 96
2020-01-22 23:00:00 3.7 5 Sur 11 Sudoeste 0.7 -- -- 96
2020-01-22 22:00:00 4 0 Calma 9 Sur 0.6 -- -- 94
2020-01-22 21:00:00 3.8 4 Sur 10 Sudoeste 0.2 -- -- 94
2020-01-22 20:00:00 4 2 Sur 8 Sudoeste 0.1 -- -- 94
2020-01-22 19:00:00 4 0 Calma 10 Sudoeste 0 -- -- 94
2020-01-22 18:00:00 4.2 5 Sur 13 Sudoeste 0 -- -- 93
2020-01-22 17:00:00 4.6 4 Sur 11 Sudoeste 0.1 -- -- 93
2020-01-22 16:00:00 5 4 Sur 10 Sudoeste 0 -- -- 93
2020-01-22 15:00:00 4.6 5 Sudoeste 11 Sudoeste 0 -- -- 97
2020-01-22 14:00:00 4.2 5 Sur 10 Sur 0 -- -- 97
2020-01-22 13:00:00 3.7 5 Sur 10 Sur 0 -- -- 97
2020-01-22 12:00:00 3.8 3 Sur 7 Sur 0 -- -- 97
2020-01-22 11:00:00 3.4 3 Sudoeste 10 Sudoeste 0 -- -- 97
2020-01-22 10:00:00 2.8 4 Sur 10 Sur 0 -- -- 97
2020-01-22 09:00:00 2.7 0 Calma 7 Sudoeste 0 -- -- 97
2020-01-22 08:00:00 2.5 4 Sur 12 Sur 0 -- -- 97
2020-01-22 07:00:00 2.4 5 Sur 11 Sur 0 -- -- 97
2020-01-22 06:00:00 2.4 3 Sur 11 Sudoeste 0 -- -- 97
2020-01-22 05:00:00 2.4 3 Sudoeste 9 Sudoeste 0 -- -- 97
2020-01-22 04:00:00 2.3 5 Sudoeste 11 Sudoeste 0.1 -- -- 97
2020-01-22 03:00:00 2.3 2 Sudoeste 9 Sur 0 -- -- 97
2020-01-22 02:00:00 2.3 5 Sur 10 Sur 0 -- -- 97
2020-01-22 01:00:00 2.3 0 Calma 10 Sur 0.1 -- -- 97
2020-01-22 00:00:00 2.7 2 Sur 7 Sudoeste 0.1 -- -- 97
2020-01-21 23:00:00 3 0 Calma 17 Noroeste 1.9 -- -- 97
2020-01-21 22:00:00 3.4 5 Noroeste 11 Sur 9.2 -- -- 97
2020-01-21 21:00:00 3.7 8 Sudoeste 13 Sudoeste 9.6 -- -- 97
2020-01-21 20:00:00 3.8 5 Oeste 12 Sudoeste 7.5 -- -- 97
2020-01-21 19:00:00 4.3 0 Calma 15 Sudoeste 11.6 -- -- 95
2020-01-21 18:00:00 3.8 10 Sudoeste 35 Este 2 -- -- 95
2020-01-21 17:00:00 7.9 19 Este 39 Este 2.1 -- -- 97
2020-01-21 16:00:00 2.7 2 Norte 18 Norte 9.6 -- -- 98
2020-01-21 15:00:00 4.6 13 Nordeste 22 Norte 9.5 -- -- 97
2020-01-21 14:00:00 2 3 Sur 13 Sur 5.2 -- -- 98
2020-01-21 13:00:00 2.3 3 Sudoeste 21 Oeste 4.6 -- -- 98
2020-01-21 12:00:00 1.7 12 Oeste 22 Oeste 3 -- -- 98
2020-01-21 11:00:00 0.9 7 Sudoeste 18 Noroeste 4.7 -- -- 97
2020-01-21 10:00:00 0.7 5 Noroeste 22 Noroeste 4 -- -- 97
2020-01-21 09:00:00 0.3 14 Noroeste 28 Noroeste 5 -- -- 97
2020-01-21 08:00:00 0.3 15 Noroeste 31 Noroeste 6.6 -- -- 97
2020-01-21 07:00:00 0.1 13 Oeste 23 Oeste 5.3 -- -- 97
2020-01-21 06:00:00 0.7 11 Oeste 19 Oeste 6.8 -- -- 97
2020-01-21 05:00:00 0.3 6 Oeste 14 Oeste 4.2 -- -- 97
2020-01-21 04:00:00 0.2 5 Noroeste 16 Oeste 2.2 -- -- 97
2020-01-21 03:00:00 0 6 Oeste 15 Oeste 3.9 -- -- 97
2020-01-21 02:00:00 0 8 Oeste 19 Oeste 1 -- -- 97
2020-01-21 01:00:00 0 10 Noroeste 24 Oeste 2.6 -- -- 96
2020-01-21 00:00:00 0.8 8 Noroeste 18 Noroeste 2.6 -- -- 95
2020-01-20 23:00:00 2.9 8 Noroeste 17 Noroeste 1.7 -- -- 94
2020-01-20 22:00:00 0.8 0 Calma 7 Sudoeste 1.2 -- -- 97
2020-01-20 21:00:00 0.7 0 Calma 7 Oeste 1.3 -- -- 97
2020-01-20 20:00:00 0.9 6 Oeste 17 Oeste 0.3 -- -- 94
2020-01-20 19:00:00 0.7 10 Noroeste 24 Noroeste 0.1 -- -- 94
2020-01-20 18:00:00 0.7 6 Noroeste 26 Noroeste 0.1 -- -- 95
2020-01-20 17:00:00 0.3 8 Noroeste 21 Oeste 0.3 -- -- 95
2020-01-20 16:00:00 0.3 9 Oeste 18 Noroeste 0.4 -- -- 95
2020-01-20 15:00:00 0.2 8 Noroeste 17 Oeste 0.4 -- -- 95
2020-01-20 14:00:00 0.2 8 Noroeste 21 Noroeste 0.6 -- -- 95
2020-01-20 13:00:00 0 8 Noroeste 18 Oeste 1.4 -- -- 95
2020-01-20 12:00:00 -0.1 9 Noroeste 18 Oeste 1.1 -- -- 95
2020-01-20 11:00:00 -0.3 3 Oeste 15 Oeste 1 -- -- 95
2020-01-20 10:00:00 -0.4 7 Noroeste 22 Oeste 0.3 -- -- 95
2020-01-20 09:00:00 -0.5 8 Noroeste 17 Oeste 0.5 -- -- 94
2020-01-20 08:00:00 0 4 Oeste 18 Oeste 0.4 -- -- 85
2020-01-20 07:00:00 1.2 3 Noroeste 18 Noroeste 0 -- -- 67
2020-01-20 06:00:00 1.1 9 Oeste 21 Noroeste 0 -- -- 67
2020-01-20 05:00:00 1.2 11 Oeste 24 Noroeste 0 -- -- 66
2020-01-20 04:00:00 1.1 13 Oeste 31 Noroeste 0 -- -- 66
2020-01-20 03:00:00 1.4 11 Oeste 26 Oeste 0 -- -- 66
2020-01-20 02:00:00 1.2 12 Noroeste 26 Oeste 0 -- -- 67
2020-01-20 01:00:00 1.2 11 Noroeste 21 Noroeste 0 -- -- 67
2020-01-20 00:00:00 1.5 5 Oeste 18 Oeste 0 -- -- 68
2020-01-19 23:00:00 1.5 5 Sudoeste 17 Oeste 0 -- -- 67
2020-01-19 22:00:00 2 6 Sudoeste 14 Sudoeste 0 -- -- 66
2020-01-19 21:00:00 2.4 5 Sur 29 Oeste 0 -- -- 66
2020-01-19 20:00:00 3.6 14 Oeste 30 Oeste 0 -- -- 62
2020-01-19 19:00:00 4.3 10 Oeste 24 Oeste 0 -- -- 67
2020-01-19 18:00:00 5.6 8 Oeste 19 Oeste 0 -- -- 68
2020-01-19 17:00:00 6.6 11 Noroeste 29 Noroeste 0 -- -- 66
2020-01-19 16:00:00 6.7 10 Oeste 23 Oeste 0 -- -- 70
2020-01-19 15:00:00 6.4 12 Oeste 30 Oeste 0 -- -- 77
2020-01-19 14:00:00 6.1 17 Noroeste 30 Oeste 0 -- -- 87
2020-01-19 13:00:00 6 10 Noroeste 23 Noroeste 0 -- -- 96
2020-01-19 12:00:00 5.5 11 Noroeste 19 Noroeste 1.9 -- -- 97
2020-01-19 11:00:00 5.1 7 Noroeste 17 Noroeste 3 -- -- 97
2020-01-19 10:00:00 4.9 8 Noroeste 12 Oeste 6.9 -- -- 97
2020-01-19 09:00:00 4.8 5 Noroeste 17 Noroeste 1.2 -- -- 97
2020-01-19 08:00:00 4.7 9 Noroeste 20 Oeste 0.2 -- -- 97
2020-01-19 07:00:00 4.5 8 Oeste 18 Oeste 0 -- -- 96
2020-01-19 06:00:00 5.3 11 Oeste 22 Oeste 0 -- -- 86
2020-01-19 05:00:00 5.9 15 Oeste 39 Oeste 0 -- -- 81
2020-01-19 04:00:00 6.1 16 Oeste 32 Oeste 0 -- -- 80
2020-01-19 03:00:00 5.9 9 Sudoeste 29 Oeste 0 -- -- 82
2020-01-19 02:00:00 5.9 11 Oeste 32 Oeste 0 -- -- 84
2020-01-19 01:00:00 6.9 9 Oeste 36 Oeste 0.5 -- -- 89
2020-01-19 00:00:00 5.2 9 Oeste 36 Oeste 0 -- -- 90
2020-01-18 23:00:00 5.9 0 Calma 7 Sudeste 0 -- -- 85
2020-01-18 22:00:00 7 4 Sudeste 17 Norte 0 -- -- 81
2020-01-18 21:00:00 7.5 9 Norte 17 Nordeste 0 -- -- 76
2020-01-18 20:00:00 9.3 0 Calma 7 Norte 0 -- -- 66
2020-01-18 19:00:00 10.1 4 Nordeste 13 Este 0 -- -- 60
2020-01-18 18:00:00 10.4 6 Nordeste 14 Este 0 -- -- 54
2020-01-18 17:00:00 10.8 6 Nordeste 14 Nordeste 0 -- -- 52
2020-01-18 16:00:00 11.1 7 Nordeste 20 Nordeste 0 -- -- 52
2020-01-18 15:00:00 10.2 14 Nordeste 23 Este 0 -- -- 56
2020-01-18 14:00:00 10.5 9 Este 15 Este 0 -- -- 55
2020-01-18 13:00:00 9.4 9 Este 13 Nordeste 0 -- -- 57
2020-01-18 12:00:00 8.1 0 Calma 3 Este 0 -- -- 67
2020-01-18 11:00:00 6.6 3 Sur 9 Sudoeste 0 -- -- 72
2020-01-18 10:00:00 3.5 0 Calma 8 Oeste 0 -- -- 84
2020-01-18 09:00:00 2.7 0 Calma 6 Oeste 0 -- -- 86
2020-01-18 08:00:00 2.7 0 Calma 6 Sudoeste 0 -- -- 86
2020-01-18 07:00:00 2.4 0 Calma 6 Oeste 0 -- -- 87
2020-01-18 06:00:00 2.9 0 Calma 8 Sudoeste 0 -- -- 86
2020-01-18 05:00:00 2.4 4 Sur 10 Sudoeste 0 -- -- 87
2020-01-18 04:00:00 2.1 4 Oeste 9 Sudoeste 0 -- -- 87
2020-01-18 03:00:00 2.1 5 Oeste 9 Sudoeste 0 -- -- 87
2020-01-18 02:00:00 2.4 2 Sur 10 Sudoeste 0 -- -- 87
2020-01-18 01:00:00 2.7 0 Calma 9 Sudoeste 0 -- -- 86
2020-01-18 00:00:00 3.2 0 Calma 5 Oeste 0 -- -- 86
2020-01-17 23:00:00 2.9 0 Calma 7 Oeste 0 -- -- 84
2020-01-17 22:00:00 3.9 3 Sur 7 Este 0 -- -- 84
2020-01-17 21:00:00 4.6 0 Calma 13 Oeste 0 -- -- 79
2020-01-17 20:00:00 6.2 7 Oeste 13 Oeste 0 -- -- 69
2020-01-17 19:00:00 8.8 8 Oeste 21 Noroeste 0 -- -- 59
2020-01-17 18:00:00 10.3 13 Noroeste 30 Noroeste 0 -- -- 51
2020-01-17 17:00:00 12.9 15 Noroeste 42 Oeste 0 -- -- 43
2020-01-17 16:00:00 14 21 Oeste 40 Oeste 0 -- -- 39
2020-01-17 15:00:00 13.4 21 Oeste 47 Oeste 0 -- -- 43
2020-01-17 14:00:00 14.3 26 Oeste 47 Oeste 0 -- -- 41
2020-01-17 13:00:00 13.9 22 Oeste 39 Oeste 0 -- -- 42
2020-01-17 12:00:00 12.4 3 Este 8 Nordeste 0 -- -- 51
2020-01-17 11:00:00 10 0 Calma 8 Oeste 0 -- -- 61
2020-01-17 10:00:00 4.9 3 Oeste 9 Oeste 0 -- -- 82
2020-01-17 09:00:00 1.6 0 Calma 11 Sudoeste 0 -- -- 92
2020-01-17 08:00:00 2.6 3 Noroeste 7 Sudoeste 0 -- -- 92
2020-01-17 07:00:00 2.1 0 Calma 4 Sur 0 -- -- 90
2020-01-17 06:00:00 3.5 0 Calma 8 Sudoeste 0 -- -- 86
2020-01-17 05:00:00 5.7 3 Sur 8 Sur 0 -- -- 78
2020-01-17 04:00:00 4.5 3 Oeste 6 Oeste 0 -- -- 87
2020-01-17 03:00:00 4.2 0 Calma 6 Sudoeste 0 -- -- 86
2020-01-17 02:00:00 2.7 2 Oeste 5 Oeste 0 -- -- 95
2020-01-17 01:00:00 1.5 0 Calma 8 Sudeste 0 -- -- 94
2020-01-17 00:00:00 2.3 2 Oeste 6 Oeste 0 -- -- 94
2020-01-16 23:00:00 2.9 0 Calma 7 Oeste 0 -- -- 93
2020-01-16 22:00:00 3.8 0 Calma 6 Oeste 0 -- -- 90
2020-01-16 21:00:00 4.3 3 Sudoeste 7 Sudoeste 0 -- -- 87
2020-01-16 20:00:00 6 0 Calma 4 Sudoeste 0 -- -- 82
2020-01-16 19:00:00 7.6 0 Calma 5 Sudoeste 0 -- -- 72
2020-01-16 18:00:00 10 2 Nordeste 13 Este 0 -- -- 61
2020-01-16 17:00:00 12.2 10 Este 15 Este 0 -- -- 56
2020-01-16 16:00:00 12.2 8 Nordeste 17 Nordeste 0 -- -- 54
2020-01-16 15:00:00 12.6 9 Nordeste 17 Este 0 -- -- 55
2020-01-16 14:00:00 11 13 Este 19 Este 0 -- -- 57
2020-01-16 13:00:00 11.1 9 Este 14 Nordeste -- -- -- 56
2020-01-16 12:00:00 10.5 3 Este 6 Este -- -- -- 59
2020-01-16 11:00:00 6.9 0 Calma 6 Este 0 -- -- 75
2020-01-16 10:00:00 2.2 5 Este 7 Este 0 -- -- 91
2020-01-16 09:00:00 0 0 Calma 2 Sur 0 -- -- 96
2020-01-16 08:00:00 -1.2 3 Oeste 4 Oeste 0 -- -- 96
2020-01-16 07:00:00 -0.4 0 Calma -- -- 0 -- -- 96
2020-01-16 06:00:00 -1.2 0 Calma -- -- 0 -- -- 96
2020-01-16 05:00:00 -0.8 0 Calma 5 Nordeste 0 -- -- 96
2020-01-16 04:00:00 -0.3 0 Calma 5 Sur 0 -- -- 96
2020-01-16 03:00:00 0 0 Calma 3 Oeste 0 -- -- 95
2020-01-16 02:00:00 0.5 0 Calma 5 Noroeste 0 -- -- 94
2020-01-16 01:00:00 1.2 4 Oeste 6 Norte 0 -- -- 94
2020-01-16 00:00:00 0.9 0 Calma 6 Sudoeste 0 -- -- 92
2020-01-15 23:00:00 2 2 Este 13 Norte 0 -- -- 92
2020-01-15 22:00:00 2.2 0 Calma 6 Norte 0 -- -- 90
2020-01-15 21:00:00 2.5 0 Calma 8 Sudoeste 0 -- -- 88
2020-01-15 20:00:00 4.1 0 Calma 6 Oeste 0 -- -- 82
2020-01-15 19:00:00 5.2 0 Calma 9 Este 0 -- -- 71
2020-01-15 18:00:00 8.1 2 Este 7 Este 0 -- -- 57
2020-01-15 17:00:00 11.2 4 Este 8 Este 0 -- -- 46
2020-01-15 16:00:00 13 0 Calma 6 Este 0 -- -- 44
2020-01-15 15:00:00 10.6 5 Este 9 Este 0 -- -- 48
2020-01-15 14:00:00 8.9 4 Este 10 Este 0 -- -- 51
2020-01-15 13:00:00 6.6 6 Este 10 Este 0 -- -- 57
2020-01-15 12:00:00 4.7 6 Este 11 Este 0 -- -- 64
2020-01-15 11:00:00 2.5 4 Este 7 Este 0 -- -- 78
2020-01-15 10:00:00 0 0 Calma 4 Sur 0 -- -- 88
2020-01-15 09:00:00 -0.6 3 Oeste 5 Oeste 0 -- -- 86
2020-01-15 08:00:00 -1.6 0 Calma 5 Este 0 -- -- 87
2020-01-15 07:00:00 -0.7 0 Calma 7 Sudoeste 0 -- -- 82
2020-01-15 06:00:00 -0.8 5 Sudoeste 9 Sudoeste 0 -- -- 86
2020-01-15 05:00:00 -1.5 0 Calma 8 Sudoeste 0 -- -- 89
2020-01-15 04:00:00 -2.3 0 Calma 6 Oeste 0 -- -- 94
2020-01-15 03:00:00 -3.4 0 Calma 6 Noroeste 0 -- -- 94
2020-01-15 02:00:00 -3.3 0 Calma 6 Sudoeste 0 -- -- 94
2020-01-15 01:00:00 -2.6 0 Calma 3 Oeste 0 -- -- 94
2020-01-15 00:00:00 -2.9 0 Calma 4 Sudoeste 0 -- -- 94
2020-01-14 23:00:00 -1.9 0 Calma -- -- 0 -- -- 93
2020-01-14 22:00:00 -1.5 0 Calma -- -- 0 -- -- 93
2020-01-14 21:00:00 -0.6 0 Calma 3 Oeste 0 -- -- 90
2020-01-14 20:00:00 0.2 0 Calma 4 Este 0 -- -- 88
2020-01-14 19:00:00 1.8 0 Calma 4 Nordeste 0 -- -- 81
2020-01-14 18:00:00 3.9 0 Calma 12 Este 0 -- -- 71
2020-01-14 17:00:00 5.4 4 Nordeste 10 Este 0 -- -- 64
2020-01-14 16:00:00 5.9 6 Nordeste 13 Este 0 -- -- 58
2020-01-14 15:00:00 4.1 8 Este 14 Este 0 -- -- 68
2020-01-14 14:00:00 3.3 9 Este 15 Este 0 -- -- 70
2020-01-14 13:00:00 3.4 8 Este 13 Este 0 -- -- 67
2020-01-14 12:00:00 2.3 8 Este 13 Este 0 -- -- 73
2020-01-14 11:00:00 0.8 4 Este 6 Este 0 -- -- 87
2020-01-14 10:00:00 -2 4 Este 5 Este 0 -- -- 97
2020-01-14 09:00:00 -4.8 0 Calma 6 Nordeste 0 -- -- 96
2020-01-14 08:00:00 -5.4 0 Calma 4 Oeste 0 -- -- 96
2020-01-14 07:00:00 -5.1 0 Calma 11 Este 0 -- -- 96
2020-01-14 06:00:00 -5.4 0 Calma 3 Norte 0 -- -- 96
2020-01-14 05:00:00 -5.1 0 Calma 3 Norte 0 -- -- 96
2020-01-14 04:00:00 -5.1 0 Calma 4 Sudoeste 0 -- -- 96
2020-01-14 03:00:00 -4.4 2 Sudoeste 6 Oeste 0 -- -- 98
2020-01-14 02:00:00 -3.7 0 Calma 3 Norte 0 -- -- 97
2020-01-14 01:00:00 -3.5 0 Calma 9 Sudoeste 0 -- -- 97
2020-01-14 00:00:00 -2.9 2 Oeste 5 Noroeste 0 -- -- 98
2020-01-13 23:00:00 -2.9 0 Calma 8 Nordeste 0 -- -- 97
2020-01-13 22:00:00 -2.8 0 Calma 9 Este 0 -- -- 97
2020-01-13 21:00:00 -1.9 7 Este 10 Este 0 -- -- 96
2020-01-13 20:00:00 -0.8 2 Norte 6 Norte 0 -- -- 92
2020-01-13 19:00:00 0 0 Calma 10 Sudeste 0 -- -- 90
2020-01-13 18:00:00 1.7 4 Norte 10 Norte 0 -- -- 79
2020-01-13 17:00:00 3.2 0 Calma 7 Sur 0 -- -- 73
2020-01-13 16:00:00 2.4 2 Sudoeste 11 Este 0 -- -- 77
2020-01-13 15:00:00 1.6 8 Este 12 Este 0 -- -- 81
2020-01-13 14:00:00 1.8 6 Este 13 Este 0 -- -- 78
2020-01-13 13:00:00 1.5 9 Este 15 Este 0 -- -- 76
2020-01-13 12:00:00 1 4 Este 8 Este 0 -- -- 79
2020-01-13 11:00:00 -2.9 6 Este 12 Este 0 -- -- 97
2020-01-13 10:00:00 -3.4 7 Este 10 Este 0 -- -- 97
2020-01-13 09:00:00 -4.8 6 Este 10 Este 0 -- -- 97
2020-01-13 08:00:00 -5.4 0 Calma -- -- 0 -- -- 97
2020-01-13 07:00:00 -5.4 0 Calma 4 Este 0 -- -- 97
2020-01-13 06:00:00 -5.4 3 Este 4 Este 0 -- -- 97
2020-01-13 05:00:00 -5.3 0 Calma 5 Este 0 -- -- 97
2020-01-13 04:00:00 -4.9 3 Este 8 Este 0 -- -- 97
2020-01-13 03:00:00 -3.7 3 Nordeste 6 Nordeste 0 -- -- 94
2020-01-13 02:00:00 -3.1 3 Este 5 Este 0 -- -- 93
2020-01-13 01:00:00 -2.6 0 Calma -- -- 0 -- -- 91
2020-01-13 00:00:00 -2 0 Calma -- -- 0 -- -- 91
2020-01-12 23:00:00 -1.6 0 Calma 0 Calma 0 -- -- 91
2020-01-12 22:00:00 -1 0 Calma -- -- 0 -- -- 90
2020-01-12 21:00:00 0 0 Calma -- -- 0 -- -- 86
2020-01-12 20:00:00 1.6 0 Calma 4 Sudeste 0 -- -- 79
2020-01-12 19:00:00 3.7 0 Calma 6 Norte 0 -- -- 67
2020-01-12 18:00:00 6.6 0 Calma 6 Este 0 -- -- 55
2020-01-12 17:00:00 8.4 6 Este 11 Este 0 -- -- 51
2020-01-12 16:00:00 9 9 Este 15 Este 0 -- -- 48
2020-01-12 15:00:00 10 6 Norte 13 Norte 0 -- -- 35
2020-01-12 14:00:00 10.5 0 Calma 12 Sudoeste 0 -- -- 38
2020-01-12 13:00:00 9.2 4 Sur 12 Sudoeste 0 -- -- 41
2020-01-12 12:00:00 6.6 3 Oeste 7 Oeste 0 -- -- 47
2020-01-12 11:00:00 3.6 3 Oeste 7 Sur 0 -- -- 62
2020-01-12 10:00:00 1 3 Sur 8 Sudoeste 0 -- -- 69
2020-01-12 09:00:00 -1.2 5 Sudoeste 10 Sudoeste 0 -- -- 77
2020-01-12 08:00:00 -2.2 4 Sudoeste 9 Sudoeste 0 -- -- 83
2020-01-12 07:00:00 -1.4 0 Calma 10 Sudoeste 0 -- -- 80
2020-01-12 06:00:00 -0.5 6 Sudoeste 10 Sudoeste 0 -- -- 77
2020-01-12 05:00:00 0 4 Sudoeste 9 Sudoeste 0 -- -- 76
2020-01-12 04:00:00 0.5 4 Sudoeste 11 Sudoeste 0 -- -- 77
2020-01-12 03:00:00 0.6 5 Sudoeste 11 Sur 0 -- -- 80
2020-01-12 02:00:00 -0.1 5 Sudoeste 10 Sudoeste 0 -- -- 86
2020-01-12 01:00:00 -0.6 3 Sur 7 Sur 0 -- -- 88
2020-01-12 00:00:00 0.4 4 Oeste 7 Sudoeste 0 -- -- 83
2020-01-11 23:00:00 1.1 4 Sur 6 Sudoeste 0 -- -- 83
2020-01-11 22:00:00 1.6 4 Sudoeste 7 Sudoeste 0 -- -- 82
2020-01-11 21:00:00 2 4 Oeste 8 Oeste 0 -- -- 81
2020-01-11 20:00:00 3 3 Oeste 6 Sudoeste 0 -- -- 75
2020-01-11 19:00:00 5 0 Calma -- -- 0 -- -- 60
2020-01-11 18:00:00 8.2 0 Calma 9 Noroeste 0 -- -- 48
2020-01-11 17:00:00 10.8 5 Noroeste 14 Noroeste 0 -- -- 42
2020-01-11 16:00:00 10.7 8 Noroeste 16 Noroeste 0 -- -- 43
2020-01-11 15:00:00 10.3 9 Oeste 20 Noroeste 0 -- -- 44
2020-01-11 14:00:00 10.3 10 Oeste 23 Noroeste 0 -- -- 47
2020-01-11 13:00:00 9.8 10 Oeste 22 Noroeste 0 -- -- 49
2020-01-11 12:00:00 8.7 12 Oeste 22 Sudoeste 0 -- -- 52
2020-01-11 11:00:00 7.4 5 Sudoeste 10 Sudoeste 0 -- -- 67
2020-01-11 10:00:00 2.5 3 Sudoeste 8 Oeste 0 -- -- 85
2020-01-11 09:00:00 0.6 4 Sudoeste 8 Sudoeste 0 -- -- 90
2020-01-11 08:00:00 -0.1 2 Oeste 8 Oeste 0 -- -- 92
2020-01-11 07:00:00 0.5 3 Sudoeste 6 Sudoeste 0 -- -- 90
2020-01-11 06:00:00 0.5 0 Calma 9 Sudoeste 0 -- -- 89
2020-01-11 05:00:00 1.6 4 Sudoeste 10 Sudoeste 0 -- -- 87
2020-01-11 04:00:00 2.9 6 Sudoeste 9 Sur 0 -- -- 87
2020-01-11 03:00:00 2.2 3 Sudoeste 10 Sudoeste 0 -- -- 88
2020-01-11 02:00:00 1.9 0 Calma 10 Sudoeste 0 -- -- 88
2020-01-11 01:00:00 2.4 4 Sudoeste 11 Sudoeste 0 -- -- 87
2020-01-11 00:00:00 3.8 3 Sur 10 Sudoeste 0 -- -- 83
2020-01-10 23:00:00 4.4 5 Sudoeste 11 Sudoeste 0 -- -- 83
2020-01-10 22:00:00 4.3 6 Sudoeste 12 Sudoeste 0 -- -- 82
2020-01-10 21:00:00 5.4 7 Sudoeste 12 Sudoeste 0 -- -- 78
2020-01-10 20:00:00 5.6 3 Sudoeste 16 Oeste 0 -- -- 75
2020-01-10 19:00:00 6.8 8 Oeste 27 Oeste 0 -- -- 70
2020-01-10 18:00:00 8.2 10 Oeste 21 Noroeste 0 -- -- 66
2020-01-10 17:00:00 9.6 6 Noroeste 23 Noroeste 0 -- -- 60
2020-01-10 16:00:00 9.8 11 Noroeste 24 Noroeste 0 -- -- 59
2020-01-10 15:00:00 9.7 13 Noroeste 52 Noroeste 0 -- -- 59
2020-01-10 14:00:00 9.2 15 Noroeste 32 Noroeste 0 -- -- 60
2020-01-10 13:00:00 8.8 14 Noroeste 35 Noroeste 0 -- -- 63
2020-01-10 12:00:00 8.1 16 Noroeste 36 Oeste 0 -- -- 65
2020-01-10 11:00:00 7.7 14 Oeste 28 Noroeste 0 -- -- 65
2020-01-10 10:00:00 7.1 5 Oeste 24 Oeste 0 -- -- 69
2020-01-10 09:00:00 6.4 10 Oeste 26 Oeste 0 -- -- 71
2020-01-10 08:00:00 6.5 13 Oeste 32 Oeste 0 -- -- 72
2020-01-10 07:00:00 6.8 12 Oeste 27 Oeste 0 -- -- 77
2020-01-10 06:00:00 6.5 14 Oeste 24 Oeste 0.2 -- -- 93
2020-01-10 05:00:00 2.4 0 Calma 9 Sur 0.3 -- -- 97
2020-01-10 04:00:00 1.9 6 Sur 11 Sudoeste 0 -- -- 97
2020-01-10 03:00:00 1.6 5 Sudoeste 15 Noroeste 0 -- -- 97
2020-01-10 02:00:00 1.3 9 Oeste 19 Oeste 0 -- -- 97
2020-01-10 01:00:00 1.9 2 Noroeste 7 Noroeste 0 -- -- 97
2020-01-10 00:00:00 1.8 3 Noroeste 9 Noroeste 0 -- -- 97
2020-01-09 23:00:00 1.8 6 Noroeste 11 Noroeste 0 -- -- 97
2020-01-09 22:00:00 1.5 6 Oeste 15 Oeste 0 -- -- 97
2020-01-09 21:00:00 2 8 Noroeste 13 Norte 0 -- -- 97
2020-01-09 20:00:00 2.6 2 Noroeste 9 Sur 0 -- -- 97
2020-01-09 19:00:00 2.4 3 Sur 14 Noroeste 0 -- -- 97
2020-01-09 18:00:00 2.5 9 Noroeste 15 Noroeste 0 -- -- 97
2020-01-09 17:00:00 3 4 Norte 13 Norte 0 -- -- 97
2020-01-09 16:00:00 2.8 4 Este 10 Este 0 -- -- 97
2020-01-09 15:00:00 2.6 3 Sudeste 12 Este 0 -- -- 97
2020-01-09 14:00:00 3.1 4 Este 8 Norte 0 -- -- 97
2020-01-09 13:00:00 1.8 0 Calma 6 Noroeste 0 -- -- 97
2020-01-09 12:00:00 0.8 2 Nordeste 8 Este 0 -- -- 97
2020-01-09 11:00:00 0.6 2 Sudeste 6 Nordeste 0 -- -- 97
2020-01-09 10:00:00 -0.2 0 Calma 5 Sudoeste 0 -- -- 97
2020-01-09 09:00:00 -1.1 3 Sudoeste 10 Sur 0 -- -- 97
2020-01-09 08:00:00 -0.4 5 Sur 9 Sur 0 -- -- 97
2020-01-09 07:00:00 0.1 0 Calma 7 Sudoeste 0 -- -- 97
2020-01-09 06:00:00 0.3 0 Calma 7 Sudoeste 0 -- -- 97
2020-01-09 05:00:00 0.5 5 Sur 9 Sur 0 -- -- 97
2020-01-09 04:00:00 1.1 0 Calma 6 Norte 0 -- -- 97
2020-01-09 03:00:00 1.4 0 Calma 4 Este 0 -- -- 97
2020-01-09 02:00:00 1.5 0 Calma 4 Nordeste 0 -- -- 97
2020-01-09 01:00:00 1.7 0 Calma 7 Este 0 -- -- 97
2020-01-09 00:00:00 2.1 4 Nordeste 6 Nordeste 0 -- -- 97
2020-01-08 23:00:00 2.2 3 Este 6 Este 0 -- -- 97
2020-01-08 22:00:00 2.5 0 Calma 6 Sudeste 0 -- -- 97
2020-01-08 21:00:00 2.7 0 Calma 5 Sur 0 -- -- 97
2020-01-08 20:00:00 2.9 2 Sudoeste 7 Sudoeste 0 -- -- 97
2020-01-08 19:00:00 3 0 Calma 5 Este 0 -- -- 97
2020-01-08 18:00:00 3.1 3 Este 6 Este 0 -- -- 97
2020-01-08 17:00:00 3.2 0 Calma 11 Nordeste 0 -- -- 97
2020-01-08 16:00:00 3.2 8 Este 10 Este 0 -- -- 97
2020-01-08 15:00:00 3.1 0 Calma 6 Oeste 0 -- -- 97
2020-01-08 14:00:00 2.7 2 Sudoeste 7 Este 0 -- -- 97
2020-01-08 13:00:00 2.3 3 Este 11 Este 0 -- -- 97
2020-01-08 12:00:00 1.7 5 Este 10 Nordeste 0 -- -- 97
2020-01-08 11:00:00 1.4 3 Este 8 Este 0 -- -- 97
2020-01-08 10:00:00 0.1 0 Calma 8 Nordeste 0 -- -- 97
2020-01-08 09:00:00 -0.3 0 Calma 9 Nordeste 0 -- -- 97
2020-01-08 08:00:00 -0.3 5 Nordeste 8 Nordeste 0 -- -- 97
2020-01-08 07:00:00 -0.3 0 Calma 6 Sur 0 -- -- 97
2020-01-08 06:00:00 -0.2 0 Calma 7 Este 0 -- -- 97
2020-01-08 05:00:00 -0.4 4 Este 7 Este 0 -- -- 97
2020-01-08 04:00:00 -0.2 0 Calma 5 Este 0 -- -- 97
2020-01-08 03:00:00 -0.5 0 Calma 4 Sudoeste 0 -- -- 97
2020-01-08 02:00:00 0 0 Calma 5 Sur 0 -- -- 97
2020-01-08 01:00:00 0.7 0 Calma 5 Noroeste 0 -- -- 97
2020-01-08 00:00:00 0.8 0 Calma 4 Sudeste 0 -- -- 97
2020-01-07 23:00:00 1.1 3 Sur 7 Sudoeste 0 -- -- 96
2020-01-07 22:00:00 1.2 0 Calma 5 Nordeste 0 -- -- 96
2020-01-07 21:00:00 1.5 0 Calma 11 Este 0 -- -- 96
2020-01-07 20:00:00 1.7 5 Este 12 Este 0 -- -- 94
2020-01-07 19:00:00 1.3 3 Nordeste 5 Nordeste 0 -- -- 93
2020-01-07 18:00:00 2.3 0 Calma 10 Este 0 -- -- 90
2020-01-07 17:00:00 4.1 7 Este 12 Este 0 -- -- 84
2020-01-07 16:00:00 5.6 7 Este 12 Este 0 -- -- 78
2020-01-07 15:00:00 5.5 3 Norte 14 Sudoeste 0 -- -- 82
2020-01-07 14:00:00 4.1 2 Norte 12 Norte 0 -- -- 91
2020-01-07 13:00:00 4.2 5 Nordeste 12 Norte 0 -- -- 96
2020-01-07 12:00:00 1.4 0 Calma 6 Norte 0 -- -- 97
2020-01-07 11:00:00 -0.8 0 Calma 6 Sur 0 -- -- 97
2020-01-07 10:00:00 -1.6 0 Calma 6 Este 0 -- -- 97
2020-01-07 09:00:00 -1.9 0 Calma 14 Este 0 -- -- 97
2020-01-07 08:00:00 -1.6 0 Calma 4 Este 0 -- -- 97
2020-01-07 07:00:00 -1.6 0 Calma 5 Sur 0 -- -- 97
2020-01-07 06:00:00 -1.8 2 Sur 5 Sur 0 -- -- 97
2020-01-07 05:00:00 -1.6 3 Norte 6 Norte 0 -- -- 97
2020-01-07 04:00:00 -1.2 0 Calma 3 Sudeste 0 -- -- 97
2020-01-07 03:00:00 -0.9 3 Sur 5 Sur 0 -- -- 97
2020-01-07 02:00:00 -0.6 0 Calma 9 Sur 0 -- -- 97
2020-01-07 01:00:00 -0.4 2 Sudeste 4 Sudeste 0 -- -- 97
2020-01-07 00:00:00 0.5 0 Calma 12 Sur 0 -- -- 97
2020-01-06 23:00:00 0.7 6 Sudoeste 13 Sur 0 -- -- 97
2020-01-06 22:00:00 1.1 5 Oeste 12 Oeste 0 -- -- 97
2020-01-06 21:00:00 0.9 5 Noroeste 11 Oeste 0 -- -- 97
2020-01-06 20:00:00 0.9 5 Noroeste 9 Noroeste 0 -- -- 97
2020-01-06 19:00:00 1.3 4 Oeste 10 Oeste 0 -- -- 97
2020-01-06 18:00:00 1.4 5 Oeste 10 Noroeste 0 -- -- 97
2020-01-06 17:00:00 1.5 5 Noroeste 10 Oeste 0 -- -- 97
2020-01-06 16:00:00 1.9 3 Sudoeste 13 Oeste 0 -- -- 97
2020-01-06 15:00:00 1.5 3 Oeste 10 Oeste 0 -- -- 97
2020-01-06 14:00:00 1 6 Oeste 12 Oeste 0 -- -- 97
2020-01-06 13:00:00 0.9 5 Sudoeste 9 Sudoeste 0 -- -- 97
2020-01-06 12:00:00 0.4 0 Calma 7 Oeste 0 -- -- 97
2020-01-06 11:00:00 -0.2 0 Calma 6 Oeste 0 -- -- 97
2020-01-06 10:00:00 -1.2 3 Sudoeste 6 Sudoeste 0 -- -- 97